sensor_id;sensor_type;location;lat;lon;timestamp;pressure;altitude;pressure_sealevel;temperature;humidity
53699;BME280;39591;53.952;27.612;2023-02-18T00:01:48;994.7;;;2.9;74.7
53699;BME280;39591;53.952;27.612;2023-02-18T00:06:50;994.6;;;2.9;74.8
53699;BME280;39591;53.952;27.612;2023-02-18T00:11:20;994.4;;;2.9;74.8
53699;BME280;39591;53.952;27.612;2023-02-18T00:16:34;994.3;;;2.9;74.8
53699;BME280;39591;53.952;27.612;2023-02-18T00:22:06;994.2;;;2.9;74.8
53699;BME280;39591;53.952;27.612;2023-02-18T00:26:34;994;;;2.9;74.8
53699;BME280;39591;53.952;27.612;2023-02-18T00:31:34;993.9;;;2.9;74.7
53699;BME280;39591;53.952;27.612;2023-02-18T00:36:10;993.7;;;2.9;74.7
53699;BME280;39591;53.952;27.612;2023-02-18T00:41:20;993.6;;;3;75.4
53699;BME280;39591;53.952;27.612;2023-02-18T00:47:06;993.5;;;2.9;76.6
53699;BME280;39591;53.952;27.612;2023-02-18T00:51:20;993.3;;;3;77
53699;BME280;39591;53.952;27.612;2023-02-18T00:56:48;993.1;;;3;76
53699;BME280;39591;53.952;27.612;2023-02-18T01:01:34;992.9;;;3;74.8
53699;BME280;39591;53.952;27.612;2023-02-18T01:06:48;992.7;;;3.1;74.6
53699;BME280;39591;53.952;27.612;2023-02-18T01:12:06;992.5;;;3.1;74.5
53699;BME280;39591;53.952;27.612;2023-02-18T01:16:22;992.4;;;3.1;74.4
53699;BME280;39591;53.952;27.612;2023-02-18T01:21:50;992.3;;;3.1;74.5
53699;BME280;39591;53.952;27.612;2023-02-18T01:26:20;992.1;;;3.1;74.5
53699;BME280;39591;53.952;27.612;2023-02-18T01:31:50;991.9;;;3.2;74.5
53699;BME280;39591;53.952;27.612;2023-02-18T01:36:08;991.8;;;3.2;74.5
53699;BME280;39591;53.952;27.612;2023-02-18T01:42:04;991.7;;;3.3;74.6
53699;BME280;39591;53.952;27.612;2023-02-18T01:46:50;991.6;;;3.3;74.5
53699;BME280;39591;53.952;27.612;2023-02-18T01:51:10;991.5;;;3.4;74.5
53699;BME280;39591;53.952;27.612;2023-02-18T01:56:36;991.4;;;3.4;74.6
53699;BME280;39591;53.952;27.612;2023-02-18T02:01:22;991.4;;;3.4;74.8
53699;BME280;39591;53.952;27.612;2023-02-18T02:07:06;991.2;;;3.4;75.1
53699;BME280;39591;53.952;27.612;2023-02-18T02:11:57;991.2;;;3.5;74.9
53699;BME280;39591;53.952;27.612;2023-02-18T02:16:20;991.1;;;3.5;75.2
53699;BME280;39591;53.952;27.612;2023-02-18T02:21:57;991;;;3.5;75.3
53699;BME280;39591;53.952;27.612;2023-02-18T02:26:47;991;;;3.6;75.3
53699;BME280;39591;53.952;27.612;2023-02-18T02:32:11;990.9;;;3.6;75.2
53699;BME280;39591;53.952;27.612;2023-02-18T02:36:36;990.8;;;3.7;75.4
53699;BME280;39591;53.952;27.612;2023-02-18T02:41:11;990.8;;;3.8;75.5
53699;BME280;39591;53.952;27.612;2023-02-18T02:46:09;990.7;;;3.8;75.7
53699;BME280;39591;53.952;27.612;2023-02-18T02:51:34;990.7;;;3.9;75.8
53699;BME280;39591;53.952;27.612;2023-02-18T02:57:08;990.7;;;3.8;76.2
53699;BME280;39591;53.952;27.612;2023-02-18T03:01:53;990.7;;;3.9;76.3
53699;BME280;39591;53.952;27.612;2023-02-18T03:06:11;990.7;;;3.9;76.3
53699;BME280;39591;53.952;27.612;2023-02-18T03:11:51;990.7;;;4;76.4
53699;BME280;39591;53.952;27.612;2023-02-18T03:16:38;990.7;;;4;76.5
53699;BME280;39591;53.952;27.612;2023-02-18T03:22:04;990.7;;;4;76.5
53699;BME280;39591;53.952;27.612;2023-02-18T03:26:50;990.7;;;4.2;76.3
53699;BME280;39591;53.952;27.612;2023-02-18T03:31:20;990.6;;;4.2;76.2
53699;BME280;39591;53.952;27.612;2023-02-18T03:36:50;990.6;;;4.3;75.9
53699;BME280;39591;53.952;27.612;2023-02-18T03:41:36;990.6;;;4.3;75.7
53699;BME280;39591;53.952;27.612;2023-02-18T03:47:04;990.5;;;4.4;75.5
53699;BME280;39591;53.952;27.612;2023-02-18T03:51:36;990.4;;;4.5;75.3
53699;BME280;39591;53.952;27.612;2023-02-18T03:56:08;990.2;;;4.6;75.2
53699;BME280;39591;53.952;27.612;2023-02-18T04:01:50;990.1;;;4.6;74.6
53699;BME280;39591;53.952;27.612;2023-02-18T04:06:36;990.1;;;4.6;74.6
53699;BME280;39591;53.952;27.612;2023-02-18T04:12:04;990;;;4.7;74.5
53699;BME280;39591;53.952;27.612;2023-02-18T04:16:50;990;;;4.7;74.5
53699;BME280;39591;53.952;27.612;2023-02-18T04:21:48;990;;;4.7;74.5
53699;BME280;39591;53.952;27.612;2023-02-18T04:26:48;990;;;4.7;74.7
53699;BME280;39591;53.952;27.612;2023-02-18T04:31:34;989.9;;;4.7;74.9
53699;BME280;39591;53.952;27.612;2023-02-18T04:37:04;989.9;;;4.6;75.1
53699;BME280;39591;53.952;27.612;2023-02-18T04:41:48;989.9;;;4.6;75.2
53699;BME280;39591;53.952;27.612;2023-02-18T04:46:08;989.8;;;4.6;75.1
53699;BME280;39591;53.952;27.612;2023-02-18T04:51:50;989.8;;;4.6;75.2
53699;BME280;39591;53.952;27.612;2023-02-18T04:56:20;989.8;;;4.6;75.4
53699;BME280;39591;53.952;27.612;2023-02-18T05:01:50;989.8;;;4.6;75.4
53699;BME280;39591;53.952;27.612;2023-02-18T05:06:22;989.7;;;4.6;75.3
53699;BME280;39591;53.952;27.612;2023-02-18T05:11:48;989.7;;;4.7;75.2
53699;BME280;39591;53.952;27.612;2023-02-18T05:16:34;989.7;;;4.7;75
53699;BME280;39591;53.952;27.612;2023-02-18T05:21:22;989.7;;;4.8;75
53699;BME280;39591;53.952;27.612;2023-02-18T05:27:06;989.7;;;4.8;74.8
53699;BME280;39591;53.952;27.612;2023-02-18T05:31:50;989.6;;;4.7;74.7
53699;BME280;39591;53.952;27.612;2023-02-18T05:36:08;989.6;;;4.7;74.7
53699;BME280;39591;53.952;27.612;2023-02-18T05:41:48;989.6;;;4.8;74.4
53699;BME280;39591;53.952;27.612;2023-02-18T05:46:36;989.6;;;4.8;74.3
53699;BME280;39591;53.952;27.612;2023-02-18T05:52:04;989.5;;;4.8;74
53699;BME280;39591;53.952;27.612;2023-02-18T05:56:22;989.5;;;4.8;73.9
53699;BME280;39591;53.952;27.612;2023-02-18T06:01:20;989.5;;;4.8;73.8
53699;BME280;39591;53.952;27.612;2023-02-18T06:06:50;989.5;;;4.8;73.7
53699;BME280;39591;53.952;27.612;2023-02-18T06:11:36;989.6;;;4.8;73.6
53699;BME280;39591;53.952;27.612;2023-02-18T06:17:04;989.6;;;4.8;73.8
53699;BME280;39591;53.952;27.612;2023-02-18T06:21:08;989.6;;;4.8;73.9
53699;BME280;39591;53.952;27.612;2023-02-18T06:26:08;989.6;;;4.7;73.6
53699;BME280;39591;53.952;27.612;2023-02-18T06:31:48;989.5;;;4.8;73.7
53699;BME280;39591;53.952;27.612;2023-02-18T06:36:34;989.5;;;4.9;73.4
53699;BME280;39591;53.952;27.612;2023-02-18T06:42:04;989.5;;;5;73.3
53699;BME280;39591;53.952;27.612;2023-02-18T06:46:22;989.6;;;5.2;72.7
53699;BME280;39591;53.952;27.612;2023-02-18T06:51:08;989.6;;;5.3;72.5
53699;BME280;39591;53.952;27.612;2023-02-18T06:56:34;989.6;;;5.2;72.4
53699;BME280;39591;53.952;27.612;2023-02-18T07:01:32;989.6;;;5.1;72.6
53699;BME280;39591;53.952;27.612;2023-02-18T07:07:00;989.7;;;5.1;72.5
53699;BME280;39591;53.952;27.612;2023-02-18T07:11:34;989.7;;;5;72.5
53699;BME280;39591;53.952;27.612;2023-02-18T07:16:20;989.7;;;5;72.5
53699;BME280;39591;53.952;27.612;2023-02-18T07:22:04;989.7;;;5;72.4
53699;BME280;39591;53.952;27.612;2023-02-18T07:26:24;989.7;;;5.1;72.3
53699;BME280;39591;53.952;27.612;2023-02-18T07:32:02;989.7;;;5.1;72.2
53699;BME280;39591;53.952;27.612;2023-02-18T07:36:18;989.7;;;5.1;71.9
53699;BME280;39591;53.952;27.612;2023-02-18T07:41:11;989.7;;;5;72.6
53699;BME280;39591;53.952;27.612;2023-02-18T07:46:32;989.7;;;5.1;72.5
53699;BME280;39591;53.952;27.612;2023-02-18T07:51:32;989.7;;;5;72.6
53699;BME280;39591;53.952;27.612;2023-02-18T07:57:04;989.7;;;5;72.7
53699;BME280;39591;53.952;27.612;2023-02-18T08:01:34;989.7;;;5.1;72.4
53699;BME280;39591;53.952;27.612;2023-02-18T08:06:34;989.7;;;5.2;72.2
53699;BME280;39591;53.952;27.612;2023-02-18T08:11:48;989.6;;;5.3;71.5
53699;BME280;39591;53.952;27.612;2023-02-18T08:16:22;989.6;;;5.3;71.1
53699;BME280;39591;53.952;27.612;2023-02-18T08:22:04;989.6;;;5.4;70.8
53699;BME280;39591;53.952;27.612;2023-02-18T08:26:34;989.6;;;5.5;70.4
53699;BME280;39591;53.952;27.612;2023-02-18T08:31:36;989.6;;;5.6;70.2
53699;BME280;39591;53.952;27.612;2023-02-18T08:36:48;989.6;;;5.6;70
53699;BME280;39591;53.952;27.612;2023-02-18T08:41:20;989.6;;;5.6;69.9
53699;BME280;39591;53.952;27.612;2023-02-18T08:47:04;989.6;;;5.6;69.8
53699;BME280;39591;53.952;27.612;2023-02-18T08:51:34;989.6;;;5.7;69.9
53699;BME280;39591;53.952;27.612;2023-02-18T08:56:08;989.7;;;5.7;69.4
53699;BME280;39591;53.952;27.612;2023-02-18T09:01:48;989.7;;;5.7;69.5
53699;BME280;39591;53.952;27.612;2023-02-18T09:06:08;989.8;;;5.8;69.3
53699;BME280;39591;53.952;27.612;2023-02-18T09:12:02;989.8;;;5.7;68.8
53699;BME280;39591;53.952;27.612;2023-02-18T09:16:48;989.8;;;5.6;69.4
53699;BME280;39591;53.952;27.612;2023-02-18T09:21:34;989.8;;;5.7;69.4
53699;BME280;39591;53.952;27.612;2023-02-18T09:26:48;989.9;;;5.6;69
53699;BME280;39591;53.952;27.612;2023-02-18T09:31:08;989.8;;;5.6;68.9
53699;BME280;39591;53.952;27.612;2023-02-18T09:37:04;989.8;;;5.5;69
53699;BME280;39591;53.952;27.612;2023-02-18T09:41:36;989.8;;;5.5;68.7
53699;BME280;39591;53.952;27.612;2023-02-18T09:46:10;989.8;;;5.7;68.6
53699;BME280;39591;53.952;27.612;2023-02-18T09:51:09;989.8;;;5.7;68.2
53699;BME280;39591;53.952;27.612;2023-02-18T09:56:21;989.8;;;5.7;67.9
53699;BME280;39591;53.952;27.612;2023-02-18T10:02:05;989.7;;;5.8;68.1
53699;BME280;39591;53.952;27.612;2023-02-18T10:06:23;989.7;;;5.8;68
53699;BME280;39591;53.952;27.612;2023-02-18T10:11:21;989.7;;;5.7;68.2
53699;BME280;39591;53.952;27.612;2023-02-18T10:16:48;989.7;;;5.6;68.1
53699;BME280;39591;53.952;27.612;2023-02-18T10:21:09;989.6;;;5.5;68.4
53699;BME280;39591;53.952;27.612;2023-02-18T10:27:03;989.6;;;5.4;68.6
53699;BME280;39591;53.952;27.612;2023-02-18T10:31:11;989.7;;;5.4;68.7
53699;BME280;39591;53.952;27.612;2023-02-18T10:36:34;989.6;;;5.3;69.1
53699;BME280;39591;53.952;27.612;2023-02-18T10:42:07;989.7;;;5.4;69.4
53699;BME280;39591;53.952;27.612;2023-02-18T10:46:11;989.7;;;5.5;69.3
53699;BME280;39591;53.952;27.612;2023-02-18T10:52:02;989.7;;;5.5;69
53699;BME280;39591;53.952;27.612;2023-02-18T10:56:33;989.7;;;5.5;69.1
53699;BME280;39591;53.952;27.612;2023-02-18T11:01:20;989.8;;;5.5;69.3
53699;BME280;39591;53.952;27.612;2023-02-18T11:06:37;989.7;;;5.6;69
53699;BME280;39591;53.952;27.612;2023-02-18T11:11:08;989.7;;;5.7;68.6
53699;BME280;39591;53.952;27.612;2023-02-18T11:17:06;989.7;;;5.7;68.4
53699;BME280;39591;53.952;27.612;2023-02-18T11:21:23;989.8;;;5.7;68.2
53699;BME280;39591;53.952;27.612;2023-02-18T11:26:22;989.8;;;5.6;68.2
53699;BME280;39591;53.952;27.612;2023-02-18T11:31:37;989.9;;;5.6;68.2
53699;BME280;39591;53.952;27.612;2023-02-18T11:36:12;989.9;;;5.6;67.8
53699;BME280;39591;53.952;27.612;2023-02-18T11:42:03;989.9;;;5.7;67.7
53699;BME280;39591;53.952;27.612;2023-02-18T11:46:22;990;;;5.7;67.7
53699;BME280;39591;53.952;27.612;2023-02-18T11:51:33;990;;;5.8;67.5
53699;BME280;39591;53.952;27.612;2023-02-18T11:56:53;990.1;;;5.9;67.3
53699;BME280;39591;53.952;27.612;2023-02-18T12:01:21;990.1;;;5.9;67.3
53699;BME280;39591;53.952;27.612;2023-02-18T12:07:05;990.1;;;6;67.2
53699;BME280;39591;53.952;27.612;2023-02-18T12:11:35;990.2;;;6.2;66.9
53699;BME280;39591;53.952;27.612;2023-02-18T12:16:10;990.2;;;6.2;66.6
53699;BME280;39591;53.952;27.612;2023-02-18T12:21:52;990.3;;;6.2;66.6
53699;BME280;39591;53.952;27.612;2023-02-18T12:26:12;990.3;;;6.2;66.9
53699;BME280;39591;53.952;27.612;2023-02-18T12:32:04;990.3;;;6.1;67
53699;BME280;39591;53.952;27.612;2023-02-18T12:36:24;990.3;;;5.9;67.1
53699;BME280;39591;53.952;27.612;2023-02-18T12:41:22;990.3;;;5.9;66.7
53699;BME280;39591;53.952;27.612;2023-02-18T12:46:56;990.4;;;5.9;66.7
53699;BME280;39591;53.952;27.612;2023-02-18T12:51:22;990.5;;;5.8;67.3
53699;BME280;39591;53.952;27.612;2023-02-18T12:57:16;990.5;;;5.7;67.9
53699;BME280;39591;53.952;27.612;2023-02-18T13:01:32;990.5;;;5.8;67.8
53699;BME280;39591;53.952;27.612;2023-02-18T13:06:44;990.5;;;5.9;67.3
53699;BME280;39591;53.952;27.612;2023-02-18T13:12:03;990.5;;;5.9;67.2
53699;BME280;39591;53.952;27.612;2023-02-18T13:16:20;990.6;;;5.8;67.5
53699;BME280;39591;53.952;27.612;2023-02-18T13:22:02;990.6;;;5.6;67.5
53699;BME280;39591;53.952;27.612;2023-02-18T13:26:20;990.6;;;5.4;68
53699;BME280;39591;53.952;27.612;2023-02-18T13:31:13;990.7;;;5.3;68.5
53699;BME280;39591;53.952;27.612;2023-02-18T13:36:51;990.7;;;5.2;69.1
53699;BME280;39591;53.952;27.612;2023-02-18T13:41:35;990.9;;;5.1;70
53699;BME280;39591;53.952;27.612;2023-02-18T13:47:02;990.9;;;5;70.2
53699;BME280;39591;53.952;27.612;2023-02-18T13:51:36;990.9;;;4.7;70.9
53699;BME280;39591;53.952;27.612;2023-02-18T13:56:08;991.1;;;4.6;71.3
53699;BME280;39591;53.952;27.612;2023-02-18T14:01:48;991.1;;;4.4;72
53699;BME280;39591;53.952;27.612;2023-02-18T14:06:20;991.1;;;4.3;72.1
53699;BME280;39591;53.952;27.612;2023-02-18T14:12:15;991.2;;;4.2;72
53699;BME280;39591;53.952;27.612;2023-02-18T14:17:00;991.3;;;4.2;72
53699;BME280;39591;53.952;27.612;2023-02-18T14:21:46;991.3;;;4.2;71.8
53699;BME280;39591;53.952;27.612;2023-02-18T14:27:06;991.3;;;4.3;71.5
53699;BME280;39591;53.952;27.612;2023-02-18T14:31:41;991.4;;;4.3;71.1
53699;BME280;39591;53.952;27.612;2023-02-18T14:36:34;991.4;;;4.3;70.7
53699;BME280;39591;53.952;27.612;2023-02-18T14:41:50;991.4;;;4.3;69.9
53699;BME280;39591;53.952;27.612;2023-02-18T14:47:09;991.4;;;4.3;69
53699;BME280;39591;53.952;27.612;2023-02-18T14:52:04;991.4;;;4.4;67.6
53699;BME280;39591;53.952;27.612;2023-02-18T14:56:08;991.5;;;4.4;67.2
53699;BME280;39591;53.952;27.612;2023-02-18T15:01:48;991.5;;;4.4;67.5
53699;BME280;39591;53.952;27.612;2023-02-18T15:06:20;991.5;;;4.4;67.8
53699;BME280;39591;53.952;27.612;2023-02-18T15:11:46;991.4;;;4.3;68.1
53699;BME280;39591;53.952;27.612;2023-02-18T15:17:02;991.5;;;4.3;68.4
53699;BME280;39591;53.952;27.612;2023-02-18T15:21:12;991.5;;;4.2;68.2
53699;BME280;39591;53.952;27.612;2023-02-18T15:26:48;991.6;;;4.2;67.9
53699;BME280;39591;53.952;27.612;2023-02-18T15:31:35;991.6;;;4.2;67.6
53699;BME280;39591;53.952;27.612;2023-02-18T15:36:48;991.7;;;4.2;66.8
53699;BME280;39591;53.952;27.612;2023-02-18T15:42:05;991.7;;;4.2;66.6
53699;BME280;39591;53.952;27.612;2023-02-18T15:46:22;991.7;;;4.2;66.5
53699;BME280;39591;53.952;27.612;2023-02-18T15:52:02;991.7;;;4.2;66.5
53699;BME280;39591;53.952;27.612;2023-02-18T15:56:08;991.8;;;4.2;66.1
53699;BME280;39591;53.952;27.612;2023-02-18T16:01:50;991.9;;;4.2;65.9
53699;BME280;39591;53.952;27.612;2023-02-18T16:07:03;991.9;;;4.2;65.9
53699;BME280;39591;53.952;27.612;2023-02-18T16:11:08;992;;;4.2;66.3
53699;BME280;39591;53.952;27.612;2023-02-18T16:16:53;992;;;4.2;66.2
53699;BME280;39591;53.952;27.612;2023-02-18T16:21:36;992.1;;;4.2;65.8
53699;BME280;39591;53.952;27.612;2023-02-18T16:26:46;992.1;;;4.2;65.6
53699;BME280;39591;53.952;27.612;2023-02-18T16:32:04;992.2;;;4.2;65.4
53699;BME280;39591;53.952;27.612;2023-02-18T16:36:09;992.3;;;4.2;65.3
53699;BME280;39591;53.952;27.612;2023-02-18T16:41:48;992.3;;;4.1;65.8
53699;BME280;39591;53.952;27.612;2023-02-18T16:46:20;992.3;;;4.1;65.8
53699;BME280;39591;53.952;27.612;2023-02-18T16:51:48;992.4;;;4;65.5
53699;BME280;39591;53.952;27.612;2023-02-18T16:57:04;992.5;;;4;65.7
53699;BME280;39591;53.952;27.612;2023-02-18T17:06:48;992.6;;;4.1;65.8
53699;BME280;39591;53.952;27.612;2023-02-18T17:11:34;992.6;;;4.1;65
53699;BME280;39591;53.952;27.612;2023-02-18T17:16:34;992.6;;;4.1;64.8
53699;BME280;39591;53.952;27.612;2023-02-18T17:22:02;992.7;;;4.1;64.7
53699;BME280;39591;53.952;27.612;2023-02-18T17:26:36;992.8;;;4.1;65
53699;BME280;39591;53.952;27.612;2023-02-18T17:31:48;992.8;;;4.1;64.9
53699;BME280;39591;53.952;27.612;2023-02-18T17:36:36;992.8;;;4.1;64.6
53699;BME280;39591;53.952;27.612;2023-02-18T17:41:46;992.8;;;4.1;64.6
53699;BME280;39591;53.952;27.612;2023-02-18T17:47:04;992.8;;;4.1;64.7
53699;BME280;39591;53.952;27.612;2023-02-18T17:51:34;992.9;;;4.1;64.5
53699;BME280;39591;53.952;27.612;2023-02-18T17:56:48;992.9;;;4.2;64.4
53699;BME280;39591;53.952;27.612;2023-02-18T18:01:20;992.9;;;4.2;63.8
53699;BME280;39591;53.952;27.612;2023-02-18T18:06:46;992.9;;;4.2;63.5
53699;BME280;39591;53.952;27.612;2023-02-18T18:12:04;992.9;;;4.2;62.8
53699;BME280;39591;53.952;27.612;2023-02-18T18:16:20;992.9;;;4.2;62.4
53699;BME280;39591;53.952;27.612;2023-02-18T18:21:10;992.9;;;4.2;62.4
53699;BME280;39591;53.952;27.612;2023-02-18T18:26:36;993;;;4.1;61.9
53699;BME280;39591;53.952;27.612;2023-02-18T18:32:02;993;;;4.1;61.6
53699;BME280;39591;53.952;27.612;2023-02-18T18:36:20;993;;;4.1;61.1
53699;BME280;39591;53.952;27.612;2023-02-18T18:41:22;992.9;;;4.1;60.7
53699;BME280;39591;53.952;27.612;2023-02-18T18:46:36;992.9;;;4;60.5
53699;BME280;39591;53.952;27.612;2023-02-18T18:51:48;992.9;;;4.1;60.6
53699;BME280;39591;53.952;27.612;2023-02-18T18:57:04;993;;;4.1;60.2
53699;BME280;39591;53.952;27.612;2023-02-18T19:01:34;993;;;4;60.3
53699;BME280;39591;53.952;27.612;2023-02-18T19:06:20;993;;;4;60.5
53699;BME280;39591;53.952;27.612;2023-02-18T19:11:22;993.1;;;4;61.2
53699;BME280;39591;53.952;27.612;2023-02-18T19:16:11;993.2;;;4;61.8
53699;BME280;39591;53.952;27.612;2023-02-18T19:22:04;993.2;;;3.9;62.1
53699;BME280;39591;53.952;27.612;2023-02-18T19:26:34;993.2;;;3.9;62.1
53699;BME280;39591;53.952;27.612;2023-02-18T19:31:08;993.2;;;3.9;61.9
53699;BME280;39591;53.952;27.612;2023-02-18T19:36:36;993.2;;;3.8;62
53699;BME280;39591;53.952;27.612;2023-02-18T19:41:46;993.2;;;3.8;62.1
53699;BME280;39591;53.952;27.612;2023-02-18T19:47:04;993.2;;;3.7;62
53699;BME280;39591;53.952;27.612;2023-02-18T19:51:22;993.3;;;3.7;61.5
53699;BME280;39591;53.952;27.612;2023-02-18T19:56:20;993.3;;;3.7;61.5
53699;BME280;39591;53.952;27.612;2023-02-18T20:01:22;993.4;;;3.7;61.6
53699;BME280;39591;53.952;27.612;2023-02-18T20:06:34;993.4;;;3.7;61.6
53699;BME280;39591;53.952;27.612;2023-02-18T20:12:04;993.5;;;3.7;61.5
53699;BME280;39591;53.952;27.612;2023-02-18T20:16:08;993.5;;;3.7;61.4
53699;BME280;39591;53.952;27.612;2023-02-18T20:21:34;993.5;;;3.6;61.3
53699;BME280;39591;53.952;27.612;2023-02-18T20:26:22;993.5;;;3.6;61.6
53699;BME280;39591;53.952;27.612;2023-02-18T20:31:48;993.5;;;3.5;61.8
53699;BME280;39591;53.952;27.612;2023-02-18T20:37:04;993.5;;;3.5;62
53699;BME280;39591;53.952;27.612;2023-02-18T20:41:34;993.6;;;3.5;62.4
53699;BME280;39591;53.952;27.612;2023-02-18T20:46:22;993.6;;;3.4;62.9
53699;BME280;39591;53.952;27.612;2023-02-18T20:51:22;993.7;;;3.4;63
53699;BME280;39591;53.952;27.612;2023-02-18T20:56:48;993.7;;;3.3;63.3
53699;BME280;39591;53.952;27.612;2023-02-18T21:02:02;993.7;;;3.3;63.6
53699;BME280;39591;53.952;27.612;2023-02-18T21:06:36;993.7;;;3.3;63.7
53699;BME280;39591;53.952;27.612;2023-02-18T21:11:09;993.7;;;3.2;63.5
53699;BME280;39591;53.952;27.612;2023-02-18T21:16:23;993.7;;;3.3;63.5
53699;BME280;39591;53.952;27.612;2023-02-18T21:21:09;993.7;;;3.3;63.2
53699;BME280;39591;53.952;27.612;2023-02-18T21:27:02;993.8;;;3.3;62.8
53699;BME280;39591;53.952;27.612;2023-02-18T21:31:13;993.8;;;3.3;62.5
53699;BME280;39591;53.952;27.612;2023-02-18T21:36:34;993.8;;;3.4;62.1
53699;BME280;39591;53.952;27.612;2023-02-18T21:41:36;993.8;;;3.4;62
53699;BME280;39591;53.952;27.612;2023-02-18T21:46:20;993.9;;;3.4;61.8
53699;BME280;39591;53.952;27.612;2023-02-18T21:52:04;993.9;;;3.4;61.7
53699;BME280;39591;53.952;27.612;2023-02-18T21:56:22;993.9;;;3.4;61.6
53699;BME280;39591;53.952;27.612;2023-02-18T22:01:20;994;;;3.4;61.8
53699;BME280;39591;53.952;27.612;2023-02-18T22:06:34;994;;;3.4;61.8
53699;BME280;39591;53.952;27.612;2023-02-18T22:11:46;994;;;3.4;61.8
53699;BME280;39591;53.952;27.612;2023-02-18T22:17:02;994;;;3.4;61.7
53699;BME280;39591;53.952;27.612;2023-02-18T22:21:36;994.1;;;3.4;61.5
53699;BME280;39591;53.952;27.612;2023-02-18T22:26:20;994.2;;;3.4;61.3
53699;BME280;39591;53.952;27.612;2023-02-18T22:31:08;994.2;;;3.4;61.4
53699;BME280;39591;53.952;27.612;2023-02-18T22:37:04;994.2;;;3.4;61.3
53699;BME280;39591;53.952;27.612;2023-02-18T22:42:04;994.2;;;3.4;61.2
53699;BME280;39591;53.952;27.612;2023-02-18T22:46:48;994.2;;;3.4;61
53699;BME280;39591;53.952;27.612;2023-02-18T22:51:21;994.3;;;3.4;61.1
53699;BME280;39591;53.952;27.612;2023-02-18T22:56:34;994.3;;;3.4;61.1
53699;BME280;39591;53.952;27.612;2023-02-18T23:01:20;994.3;;;3.4;61
53699;BME280;39591;53.952;27.612;2023-02-18T23:06:50;994.3;;;3.4;60.9
53699;BME280;39591;53.952;27.612;2023-02-18T23:12:04;994.3;;;3.4;60.9
53699;BME280;39591;53.952;27.612;2023-02-18T23:16:34;994.3;;;3.4;60.7
53699;BME280;39591;53.952;27.612;2023-02-18T23:21:09;994.3;;;3.3;60.8
53699;BME280;39591;53.952;27.612;2023-02-18T23:26:48;994.3;;;3.3;60.8
53699;BME280;39591;53.952;27.612;2023-02-18T23:32:04;994.4;;;3.3;60.8
53699;BME280;39591;53.952;27.612;2023-02-18T23:36:48;994.4;;;3.3;60.7
53699;BME280;39591;53.952;27.612;2023-02-18T23:41:36;994.5;;;3.3;60.7
53699;BME280;39591;53.952;27.612;2023-02-18T23:46:36;994.5;;;3.4;60.7
53699;BME280;39591;53.952;27.612;2023-02-18T23:51:24;994.5;;;3.4;60.7
53699;BME280;39591;53.952;27.612;2023-02-18T23:57:02;994.5;;;3.4;60.9
